sensor_id;sensor_type;location;lat;lon;timestamp;pressure;altitude;pressure_sealevel;temperature;humidity
19827;BME280;10074;52.018;4.726;2023-11-19T00:03:17;46469.88;;;-144.79;100.00
19827;BME280;10074;52.018;4.726;2023-11-19T00:08:17;46465.88;;;-144.79;100.00
19827;BME280;10074;52.018;4.726;2023-11-19T00:13:18;46467.88;;;-144.79;100.00
19827;BME280;10074;52.018;4.726;2023-11-19T00:18:19;46467.88;;;-144.79;100.00
19827;BME280;10074;52.018;4.726;2023-11-19T00:23:19;46463.88;;;-144.79;100.00
19827;BME280;10074;52.018;4.726;2023-11-19T00:28:19;46461.88;;;-144.79;100.00
19827;BME280;10074;52.018;4.726;2023-11-19T00:33:20;46465.88;;;-144.79;100.00
19827;BME280;10074;52.018;4.726;2023-11-19T00:38:20;46465.88;;;-144.79;100.00
19827;BME280;10074;52.018;4.726;2023-11-19T00:43:21;46467.88;;;-144.79;100.00
19827;BME280;10074;52.018;4.726;2023-11-19T00:48:22;46471.91;;;-144.79;100.00
19827;BME280;10074;52.018;4.726;2023-11-19T00:53:22;46463.88;;;-144.79;100.00
19827;BME280;10074;52.018;4.726;2023-11-19T00:58:23;46469.88;;;-144.79;100.00
19827;BME280;10074;52.018;4.726;2023-11-19T01:03:23;46469.88;;;-144.79;100.00
19827;BME280;10074;52.018;4.726;2023-11-19T01:08:23;46467.88;;;-144.79;100.00
19827;BME280;10074;52.018;4.726;2023-11-19T01:13:24;46467.88;;;-144.79;100.00
19827;BME280;10074;52.018;4.726;2023-11-19T01:18:25;46467.88;;;-144.79;100.00
19827;BME280;10074;52.018;4.726;2023-11-19T01:23:25;46469.88;;;-144.79;100.00
19827;BME280;10074;52.018;4.726;2023-11-19T01:28:25;46469.88;;;-144.79;100.00
19827;BME280;10074;52.018;4.726;2023-11-19T01:33:25;46467.88;;;-144.79;100.00
19827;BME280;10074;52.018;4.726;2023-11-19T01:38:26;46465.88;;;-144.79;100.00
19827;BME280;10074;52.018;4.726;2023-11-19T01:43:34;46471.91;;;-144.79;100.00
19827;BME280;10074;52.018;4.726;2023-11-19T01:48:35;46467.88;;;-144.79;100.00
19827;BME280;10074;52.018;4.726;2023-11-19T01:53:37;46469.88;;;-144.79;100.00
19827;BME280;10074;52.018;4.726;2023-11-19T01:58:39;46467.88;;;-144.79;100.00
19827;BME280;10074;52.018;4.726;2023-11-19T02:03:40;46471.91;;;-144.79;100.00
19827;BME280;10074;52.018;4.726;2023-11-19T02:08:41;46469.88;;;-144.79;100.00
19827;BME280;10074;52.018;4.726;2023-11-19T02:13:41;46469.88;;;-144.79;100.00
19827;BME280;10074;52.018;4.726;2023-11-19T02:18:43;46471.91;;;-144.79;100.00
19827;BME280;10074;52.018;4.726;2023-11-19T02:23:44;46467.88;;;-144.79;100.00
19827;BME280;10074;52.018;4.726;2023-11-19T02:28:45;46471.91;;;-144.79;100.00
19827;BME280;10074;52.018;4.726;2023-11-19T02:33:45;46469.88;;;-144.79;100.00
19827;BME280;10074;52.018;4.726;2023-11-19T02:38:45;46471.91;;;-144.79;100.00
19827;BME280;10074;52.018;4.726;2023-11-19T02:43:46;46469.88;;;-144.79;100.00
19827;BME280;10074;52.018;4.726;2023-11-19T02:48:48;46469.88;;;-144.79;100.00
19827;BME280;10074;52.018;4.726;2023-11-19T02:53:48;46469.88;;;-144.79;100.00
19827;BME280;10074;52.018;4.726;2023-11-19T02:58:49;46473.91;;;-144.79;100.00
19827;BME280;10074;52.018;4.726;2023-11-19T03:03:50;46471.91;;;-144.79;100.00
19827;BME280;10074;52.018;4.726;2023-11-19T03:08:55;46469.88;;;-144.79;100.00
19827;BME280;10074;52.018;4.726;2023-11-19T03:13:55;46471.91;;;-144.79;100.00
19827;BME280;10074;52.018;4.726;2023-11-19T03:18:56;46477.91;;;-144.79;100.00
19827;BME280;10074;52.018;4.726;2023-11-19T03:23:57;46471.91;;;-144.79;100.00
19827;BME280;10074;52.018;4.726;2023-11-19T03:29:00;46473.91;;;-144.79;100.00
19827;BME280;10074;52.018;4.726;2023-11-19T03:34:01;46469.88;;;-144.79;100.00
19827;BME280;10074;52.018;4.726;2023-11-19T03:39:03;46467.88;;;-144.79;100.00
19827;BME280;10074;52.018;4.726;2023-11-19T03:44:03;46469.88;;;-144.79;100.00
19827;BME280;10074;52.018;4.726;2023-11-19T03:49:03;46469.88;;;-144.79;100.00
19827;BME280;10074;52.018;4.726;2023-11-19T03:54:06;46471.91;;;-144.79;100.00
19827;BME280;10074;52.018;4.726;2023-11-19T03:59:08;46471.91;;;-144.79;100.00
19827;BME280;10074;52.018;4.726;2023-11-19T04:04:09;46469.88;;;-144.79;100.00
19827;BME280;10074;52.018;4.726;2023-11-19T04:09:10;46473.91;;;-144.79;100.00
19827;BME280;10074;52.018;4.726;2023-11-19T04:14:10;46471.91;;;-144.79;100.00
19827;BME280;10074;52.018;4.726;2023-11-19T04:19:11;46473.91;;;-144.79;100.00
19827;BME280;10074;52.018;4.726;2023-11-19T04:24:12;46473.91;;;-144.79;100.00
19827;BME280;10074;52.018;4.726;2023-11-19T04:29:13;46467.88;;;-144.79;100.00
19827;BME280;10074;52.018;4.726;2023-11-19T04:34:15;46471.91;;;-144.79;100.00
19827;BME280;10074;52.018;4.726;2023-11-19T04:39:16;46473.91;;;-144.79;100.00
19827;BME280;10074;52.018;4.726;2023-11-19T04:44:18;46473.91;;;-144.79;100.00
19827;BME280;10074;52.018;4.726;2023-11-19T04:49:19;46467.88;;;-144.79;100.00
19827;BME280;10074;52.018;4.726;2023-11-19T04:54:19;46471.91;;;-144.79;100.00
19827;BME280;10074;52.018;4.726;2023-11-19T04:59:19;46471.91;;;-144.79;100.00
19827;BME280;10074;52.018;4.726;2023-11-19T05:04:20;46473.91;;;-144.79;100.00
19827;BME280;10074;52.018;4.726;2023-11-19T05:09:20;46471.91;;;-144.79;100.00
19827;BME280;10074;52.018;4.726;2023-11-19T05:14:20;46471.91;;;-144.79;100.00
19827;BME280;10074;52.018;4.726;2023-11-19T05:19:21;46471.91;;;-144.79;100.00
19827;BME280;10074;52.018;4.726;2023-11-19T05:24:22;46475.91;;;-144.79;100.00
19827;BME280;10074;52.018;4.726;2023-11-19T05:29:23;46471.91;;;-144.79;100.00
19827;BME280;10074;52.018;4.726;2023-11-19T05:34:23;46475.91;;;-144.79;100.00
19827;BME280;10074;52.018;4.726;2023-11-19T05:39:25;46475.91;;;-144.79;100.00
19827;BME280;10074;52.018;4.726;2023-11-19T05:44:25;46475.91;;;-144.79;100.00
19827;BME280;10074;52.018;4.726;2023-11-19T05:49:26;46471.91;;;-144.79;100.00
19827;BME280;10074;52.018;4.726;2023-11-19T05:54:27;46475.91;;;-144.79;100.00
19827;BME280;10074;52.018;4.726;2023-11-19T05:59:27;46475.91;;;-144.79;100.00
19827;BME280;10074;52.018;4.726;2023-11-19T06:04:28;46471.91;;;-144.79;100.00
19827;BME280;10074;52.018;4.726;2023-11-19T06:09:28;46477.91;;;-144.79;100.00
19827;BME280;10074;52.018;4.726;2023-11-19T06:14:29;46475.91;;;-144.79;100.00
19827;BME280;10074;52.018;4.726;2023-11-19T06:19:29;46471.91;;;-144.79;100.00
19827;BME280;10074;52.018;4.726;2023-11-19T06:24:29;46477.91;;;-144.79;100.00
19827;BME280;10074;52.018;4.726;2023-11-19T06:29:30;46477.91;;;-144.79;100.00
19827;BME280;10074;52.018;4.726;2023-11-19T06:34:30;46473.91;;;-144.79;100.00
19827;BME280;10074;52.018;4.726;2023-11-19T06:39:30;46475.91;;;-144.79;100.00
19827;BME280;10074;52.018;4.726;2023-11-19T06:44:31;46475.91;;;-144.79;100.00
19827;BME280;10074;52.018;4.726;2023-11-19T06:49:31;46473.91;;;-144.79;100.00
19827;BME280;10074;52.018;4.726;2023-11-19T06:54:31;46477.91;;;-144.79;100.00
19827;BME280;10074;52.018;4.726;2023-11-19T06:59:32;46475.91;;;-144.79;100.00
19827;BME280;10074;52.018;4.726;2023-11-19T07:04:32;46479.91;;;-144.79;100.00
19827;BME280;10074;52.018;4.726;2023-11-19T07:09:35;46471.91;;;-144.79;100.00
19827;BME280;10074;52.018;4.726;2023-11-19T07:14:35;46475.91;;;-144.79;100.00
19827;BME280;10074;52.018;4.726;2023-11-19T07:19:36;46483.94;;;-144.79;100.00
19827;BME280;10074;52.018;4.726;2023-11-19T07:24:40;46479.91;;;-144.79;100.00
19827;BME280;10074;52.018;4.726;2023-11-19T07:29:43;46473.91;;;-144.79;100.00
19827;BME280;10074;52.018;4.726;2023-11-19T07:34:44;46475.91;;;-144.79;100.00
19827;BME280;10074;52.018;4.726;2023-11-19T07:39:44;46475.91;;;-144.79;100.00
19827;BME280;10074;52.018;4.726;2023-11-19T07:44:44;46475.91;;;-144.79;100.00
19827;BME280;10074;52.018;4.726;2023-11-19T07:49:45;46483.94;;;-144.79;100.00
19827;BME280;10074;52.018;4.726;2023-11-19T07:54:45;46475.91;;;-144.79;100.00
19827;BME280;10074;52.018;4.726;2023-11-19T07:59:46;46475.91;;;-144.79;100.00
19827;BME280;10074;52.018;4.726;2023-11-19T08:04:47;46475.91;;;-144.79;100.00
19827;BME280;10074;52.018;4.726;2023-11-19T08:09:50;46475.91;;;-144.79;100.00
19827;BME280;10074;52.018;4.726;2023-11-19T08:14:50;46475.91;;;-144.79;100.00
19827;BME280;10074;52.018;4.726;2023-11-19T08:19:50;46475.91;;;-144.79;100.00
19827;BME280;10074;52.018;4.726;2023-11-19T08:24:51;46475.91;;;-144.79;100.00
19827;BME280;10074;52.018;4.726;2023-11-19T08:29:51;46475.91;;;-144.79;100.00
19827;BME280;10074;52.018;4.726;2023-11-19T08:34:52;46471.91;;;-144.79;100.00
19827;BME280;10074;52.018;4.726;2023-11-19T08:39:53;46479.91;;;-144.79;100.00
19827;BME280;10074;52.018;4.726;2023-11-19T08:44:53;46479.91;;;-144.79;100.00
19827;BME280;10074;52.018;4.726;2023-11-19T08:49:54;46477.91;;;-144.79;100.00
19827;BME280;10074;52.018;4.726;2023-11-19T08:54:55;46473.91;;;-144.79;100.00
19827;BME280;10074;52.018;4.726;2023-11-19T08:59:56;46477.91;;;-144.79;100.00
19827;BME280;10074;52.018;4.726;2023-11-19T09:04:56;46475.91;;;-144.79;100.00
19827;BME280;10074;52.018;4.726;2023-11-19T09:09:56;46477.91;;;-144.79;100.00
19827;BME280;10074;52.018;4.726;2023-11-19T09:14:57;46475.91;;;-144.79;100.00
19827;BME280;10074;52.018;4.726;2023-11-19T09:19:57;46477.91;;;-144.79;100.00
19827;BME280;10074;52.018;4.726;2023-11-19T09:24:57;46479.91;;;-144.79;100.00
19827;BME280;10074;52.018;4.726;2023-11-19T09:30:00;46477.91;;;-144.79;100.00
19827;BME280;10074;52.018;4.726;2023-11-19T09:35:00;46479.91;;;-144.79;100.00
19827;BME280;10074;52.018;4.726;2023-11-19T09:40:02;46477.91;;;-144.79;100.00
19827;BME280;10074;52.018;4.726;2023-11-19T09:45:04;46473.91;;;-144.79;100.00
19827;BME280;10074;52.018;4.726;2023-11-19T09:50:07;46477.91;;;-144.79;100.00
19827;BME280;10074;52.018;4.726;2023-11-19T09:55:08;46479.91;;;-144.79;100.00
19827;BME280;10074;52.018;4.726;2023-11-19T10:00:09;46475.91;;;-144.79;100.00
19827;BME280;10074;52.018;4.726;2023-11-19T10:05:11;46475.91;;;-144.79;100.00
19827;BME280;10074;52.018;4.726;2023-11-19T10:10:13;46479.91;;;-144.79;100.00
19827;BME280;10074;52.018;4.726;2023-11-19T10:15:23;46475.91;;;-144.79;100.00
19827;BME280;10074;52.018;4.726;2023-11-19T10:20:24;46477.91;;;-144.79;100.00
19827;BME280;10074;52.018;4.726;2023-11-19T10:25:27;46475.91;;;-144.79;100.00
19827;BME280;10074;52.018;4.726;2023-11-19T10:30:28;46475.91;;;-144.79;100.00
19827;BME280;10074;52.018;4.726;2023-11-19T10:35:29;46483.94;;;-144.79;100.00
19827;BME280;10074;52.018;4.726;2023-11-19T10:40:39;46479.91;;;-144.79;100.00
19827;BME280;10074;52.018;4.726;2023-11-19T10:45:40;46479.91;;;-144.79;100.00
19827;BME280;10074;52.018;4.726;2023-11-19T10:50:43;46479.91;;;-144.79;100.00
19827;BME280;10074;52.018;4.726;2023-11-19T10:55:47;46481.91;;;-144.79;100.00
19827;BME280;10074;52.018;4.726;2023-11-19T11:00:51;46479.91;;;-144.79;100.00
19827;BME280;10074;52.018;4.726;2023-11-19T11:05:53;46477.91;;;-144.79;100.00
19827;BME280;10074;52.018;4.726;2023-11-19T11:10:57;46479.91;;;-144.79;100.00
19827;BME280;10074;52.018;4.726;2023-11-19T11:16:01;46483.94;;;-144.79;100.00
19827;BME280;10074;52.018;4.726;2023-11-19T11:21:10;46475.91;;;-144.79;100.00
19827;BME280;10074;52.018;4.726;2023-11-19T11:31:41;46477.91;;;-144.79;100.00
19827;BME280;10074;52.018;4.726;2023-11-19T11:47:23;46475.91;;;-144.79;100.00
19827;BME280;10074;52.018;4.726;2023-11-19T11:52:24;46475.91;;;-144.79;100.00
19827;BME280;10074;52.018;4.726;2023-11-19T11:57:36;46479.91;;;-144.79;100.00
19827;BME280;10074;52.018;4.726;2023-11-19T12:02:36;46477.91;;;-144.79;100.00
19827;BME280;10074;52.018;4.726;2023-11-19T12:07:37;46475.91;;;-144.79;100.00
19827;BME280;10074;52.018;4.726;2023-11-19T12:12:39;46479.91;;;-144.79;100.00
19827;BME280;10074;52.018;4.726;2023-11-19T12:17:49;46475.91;;;-144.79;100.00
19827;BME280;10074;52.018;4.726;2023-11-19T12:22:50;46479.91;;;-144.79;100.00
19827;BME280;10074;52.018;4.726;2023-11-19T12:27:51;46475.91;;;-144.79;100.00
19827;BME280;10074;52.018;4.726;2023-11-19T12:32:53;46477.91;;;-144.79;100.00
19827;BME280;10074;52.018;4.726;2023-11-19T12:37:53;46479.91;;;-144.79;100.00
19827;BME280;10074;52.018;4.726;2023-11-19T12:42:54;46475.91;;;-144.79;100.00
19827;BME280;10074;52.018;4.726;2023-11-19T12:48:05;46479.91;;;-144.79;100.00
19827;BME280;10074;52.018;4.726;2023-11-19T12:53:06;46475.91;;;-144.79;100.00
19827;BME280;10074;52.018;4.726;2023-11-19T12:58:06;46475.91;;;-144.79;100.00
19827;BME280;10074;52.018;4.726;2023-11-19T13:03:06;46477.91;;;-144.79;100.00
19827;BME280;10074;52.018;4.726;2023-11-19T13:08:08;46483.94;;;-144.79;100.00
19827;BME280;10074;52.018;4.726;2023-11-19T13:13:09;46475.91;;;-144.79;100.00
19827;BME280;10074;52.018;4.726;2023-11-19T13:18:09;46481.91;;;-144.79;100.00
19827;BME280;10074;52.018;4.726;2023-11-19T13:23:10;46477.91;;;-144.79;100.00
19827;BME280;10074;52.018;4.726;2023-11-19T13:28:10;46477.91;;;-144.79;100.00
19827;BME280;10074;52.018;4.726;2023-11-19T13:33:11;46477.91;;;-144.79;100.00
19827;BME280;10074;52.018;4.726;2023-11-19T13:38:12;46473.91;;;-144.79;100.00
19827;BME280;10074;52.018;4.726;2023-11-19T13:43:12;46479.91;;;-144.79;100.00
19827;BME280;10074;52.018;4.726;2023-11-19T13:48:13;46481.91;;;-144.79;100.00
19827;BME280;10074;52.018;4.726;2023-11-19T13:53:13;46477.91;;;-144.79;100.00
19827;BME280;10074;52.018;4.726;2023-11-19T13:58:13;46475.91;;;-144.79;100.00
19827;BME280;10074;52.018;4.726;2023-11-19T14:03:13;46479.91;;;-144.79;100.00
19827;BME280;10074;52.018;4.726;2023-11-19T14:08:14;46477.91;;;-144.79;100.00
19827;BME280;10074;52.018;4.726;2023-11-19T14:13:14;46475.91;;;-144.79;100.00
19827;BME280;10074;52.018;4.726;2023-11-19T14:18:15;46477.91;;;-144.79;100.00
19827;BME280;10074;52.018;4.726;2023-11-19T14:23:16;46477.91;;;-144.79;100.00
19827;BME280;10074;52.018;4.726;2023-11-19T14:28:16;46473.91;;;-144.79;100.00
19827;BME280;10074;52.018;4.726;2023-11-19T14:33:16;46471.91;;;-144.79;100.00
19827;BME280;10074;52.018;4.726;2023-11-19T14:38:16;46481.91;;;-144.79;100.00
19827;BME280;10074;52.018;4.726;2023-11-19T14:43:17;46475.91;;;-144.79;100.00
19827;BME280;10074;52.018;4.726;2023-11-19T14:48:18;46479.91;;;-144.79;100.00
19827;BME280;10074;52.018;4.726;2023-11-19T14:53:18;46477.91;;;-144.79;100.00
19827;BME280;10074;52.018;4.726;2023-11-19T14:58:20;46471.91;;;-144.79;100.00
19827;BME280;10074;52.018;4.726;2023-11-19T15:03:20;46475.91;;;-144.79;100.00
19827;BME280;10074;52.018;4.726;2023-11-19T15:08:21;46475.91;;;-144.79;100.00
19827;BME280;10074;52.018;4.726;2023-11-19T15:13:21;46479.91;;;-144.79;100.00
19827;BME280;10074;52.018;4.726;2023-11-19T15:18:22;46469.88;;;-144.79;100.00
19827;BME280;10074;52.018;4.726;2023-11-19T15:23:23;46477.91;;;-144.79;100.00
19827;BME280;10074;52.018;4.726;2023-11-19T15:28:23;46477.91;;;-144.79;100.00
19827;BME280;10074;52.018;4.726;2023-11-19T15:33:23;46473.91;;;-144.79;100.00
19827;BME280;10074;52.018;4.726;2023-11-19T15:38:24;46477.91;;;-144.79;100.00
19827;BME280;10074;52.018;4.726;2023-11-19T15:43:24;46481.91;;;-144.79;100.00
19827;BME280;10074;52.018;4.726;2023-11-19T15:48:24;46477.91;;;-144.79;100.00
19827;BME280;10074;52.018;4.726;2023-11-19T15:53:26;46475.91;;;-144.79;100.00
19827;BME280;10074;52.018;4.726;2023-11-19T15:58:26;46475.91;;;-144.79;100.00
19827;BME280;10074;52.018;4.726;2023-11-19T16:03:26;46477.91;;;-144.79;100.00
19827;BME280;10074;52.018;4.726;2023-11-19T16:08:28;46473.91;;;-144.79;100.00
19827;BME280;10074;52.018;4.726;2023-11-19T16:13:28;46475.91;;;-144.79;100.00
19827;BME280;10074;52.018;4.726;2023-11-19T16:18:29;46475.91;;;-144.79;100.00
19827;BME280;10074;52.018;4.726;2023-11-19T16:23:29;46477.91;;;-144.79;100.00
19827;BME280;10074;52.018;4.726;2023-11-19T16:28:29;46475.91;;;-144.79;100.00
19827;BME280;10074;52.018;4.726;2023-11-19T16:33:30;46473.91;;;-144.79;100.00
19827;BME280;10074;52.018;4.726;2023-11-19T16:38:30;46475.91;;;-144.79;100.00
19827;BME280;10074;52.018;4.726;2023-11-19T16:43:31;46477.91;;;-144.79;100.00
19827;BME280;10074;52.018;4.726;2023-11-19T16:48:31;46481.91;;;-144.79;100.00
19827;BME280;10074;52.018;4.726;2023-11-19T16:53:32;46477.91;;;-144.79;100.00
19827;BME280;10074;52.018;4.726;2023-11-19T16:58:32;46475.91;;;-144.79;100.00
19827;BME280;10074;52.018;4.726;2023-11-19T17:03:32;46477.91;;;-144.79;100.00
19827;BME280;10074;52.018;4.726;2023-11-19T17:08:34;46469.88;;;-144.79;100.00
19827;BME280;10074;52.018;4.726;2023-11-19T17:13:35;46473.91;;;-144.79;100.00
19827;BME280;10074;52.018;4.726;2023-11-19T17:18:37;46475.91;;;-144.79;100.00
19827;BME280;10074;52.018;4.726;2023-11-19T17:23:39;46479.91;;;-144.79;100.00
19827;BME280;10074;52.018;4.726;2023-11-19T17:28:40;46477.91;;;-144.79;100.00
19827;BME280;10074;52.018;4.726;2023-11-19T17:33:41;46475.91;;;-144.79;100.00
19827;BME280;10074;52.018;4.726;2023-11-19T17:38:41;46479.91;;;-144.79;100.00
19827;BME280;10074;52.018;4.726;2023-11-19T17:43:41;46477.91;;;-144.79;100.00
19827;BME280;10074;52.018;4.726;2023-11-19T17:48:42;46475.91;;;-144.79;100.00
19827;BME280;10074;52.018;4.726;2023-11-19T17:53:42;46477.91;;;-144.79;100.00
19827;BME280;10074;52.018;4.726;2023-11-19T17:58:42;46475.91;;;-144.79;100.00
19827;BME280;10074;52.018;4.726;2023-11-19T18:03:43;46475.91;;;-144.79;100.00
19827;BME280;10074;52.018;4.726;2023-11-19T18:08:44;46477.91;;;-144.79;100.00
19827;BME280;10074;52.018;4.726;2023-11-19T18:13:45;46477.91;;;-144.79;100.00
19827;BME280;10074;52.018;4.726;2023-11-19T18:18:45;46479.91;;;-144.79;100.00
19827;BME280;10074;52.018;4.726;2023-11-19T18:23:45;46477.91;;;-144.79;100.00
19827;BME280;10074;52.018;4.726;2023-11-19T18:28:46;46475.91;;;-144.79;100.00
19827;BME280;10074;52.018;4.726;2023-11-19T18:33:47;46477.91;;;-144.79;100.00
19827;BME280;10074;52.018;4.726;2023-11-19T18:38:47;46479.91;;;-144.79;100.00
19827;BME280;10074;52.018;4.726;2023-11-19T18:43:47;46475.91;;;-144.79;100.00
19827;BME280;10074;52.018;4.726;2023-11-19T18:48:48;46475.91;;;-144.79;100.00
19827;BME280;10074;52.018;4.726;2023-11-19T18:53:48;46475.91;;;-144.79;100.00
19827;BME280;10074;52.018;4.726;2023-11-19T18:58:48;46477.91;;;-144.79;100.00
19827;BME280;10074;52.018;4.726;2023-11-19T19:03:49;46477.91;;;-144.79;100.00
19827;BME280;10074;52.018;4.726;2023-11-19T19:08:49;46475.91;;;-144.79;100.00
19827;BME280;10074;52.018;4.726;2023-11-19T19:13:50;46473.91;;;-144.79;100.00
19827;BME280;10074;52.018;4.726;2023-11-19T19:18:50;46469.88;;;-144.79;100.00
19827;BME280;10074;52.018;4.726;2023-11-19T19:23:50;46477.91;;;-144.79;100.00
19827;BME280;10074;52.018;4.726;2023-11-19T19:28:51;46477.91;;;-144.79;100.00
19827;BME280;10074;52.018;4.726;2023-11-19T19:33:51;46473.91;;;-144.79;100.00
19827;BME280;10074;52.018;4.726;2023-11-19T19:38:58;46475.91;;;-144.79;100.00
19827;BME280;10074;52.018;4.726;2023-11-19T19:44:00;46471.91;;;-144.79;100.00
19827;BME280;10074;52.018;4.726;2023-11-19T19:49:00;46473.91;;;-144.79;100.00
19827;BME280;10074;52.018;4.726;2023-11-19T19:54:00;46475.91;;;-144.79;100.00
19827;BME280;10074;52.018;4.726;2023-11-19T19:59:00;46477.91;;;-144.79;100.00
19827;BME280;10074;52.018;4.726;2023-11-19T20:04:01;46475.91;;;-144.79;100.00
19827;BME280;10074;52.018;4.726;2023-11-19T20:09:03;46479.91;;;-144.79;100.00
19827;BME280;10074;52.018;4.726;2023-11-19T20:14:04;46479.91;;;-144.79;100.00
19827;BME280;10074;52.018;4.726;2023-11-19T20:19:04;46475.91;;;-144.79;100.00
19827;BME280;10074;52.018;4.726;2023-11-19T20:24:05;46471.91;;;-144.79;100.00
19827;BME280;10074;52.018;4.726;2023-11-19T20:29:06;46471.91;;;-144.79;100.00
19827;BME280;10074;52.018;4.726;2023-11-19T20:34:06;46473.91;;;-144.79;100.00
19827;BME280;10074;52.018;4.726;2023-11-19T20:39:07;46475.91;;;-144.79;100.00
19827;BME280;10074;52.018;4.726;2023-11-19T20:44:07;46477.91;;;-144.79;100.00
19827;BME280;10074;52.018;4.726;2023-11-19T20:49:08;46475.91;;;-144.79;100.00
19827;BME280;10074;52.018;4.726;2023-11-19T20:54:08;46475.91;;;-144.79;100.00
19827;BME280;10074;52.018;4.726;2023-11-19T20:59:09;46473.91;;;-144.79;100.00
19827;BME280;10074;52.018;4.726;2023-11-19T21:04:10;46477.91;;;-144.79;100.00
19827;BME280;10074;52.018;4.726;2023-11-19T21:09:10;46473.91;;;-144.79;100.00
19827;BME280;10074;52.018;4.726;2023-11-19T21:14:11;46479.91;;;-144.79;100.00
19827;BME280;10074;52.018;4.726;2023-11-19T21:19:11;46475.91;;;-144.79;100.00
19827;BME280;10074;52.018;4.726;2023-11-19T21:24:12;46473.91;;;-144.79;100.00
19827;BME280;10074;52.018;4.726;2023-11-19T21:29:12;46473.91;;;-144.79;100.00
19827;BME280;10074;52.018;4.726;2023-11-19T21:34:13;46475.91;;;-144.79;100.00
19827;BME280;10074;52.018;4.726;2023-11-19T21:39:13;46473.91;;;-144.79;100.00
19827;BME280;10074;52.018;4.726;2023-11-19T21:44:14;46475.91;;;-144.79;100.00
19827;BME280;10074;52.018;4.726;2023-11-19T21:49:14;46473.91;;;-144.79;100.00
19827;BME280;10074;52.018;4.726;2023-11-19T21:54:14;46477.91;;;-144.79;100.00
19827;BME280;10074;52.018;4.726;2023-11-19T21:59:15;46477.91;;;-144.79;100.00
19827;BME280;10074;52.018;4.726;2023-11-19T22:04:15;46471.91;;;-144.79;100.00
19827;BME280;10074;52.018;4.726;2023-11-19T22:09:15;46477.91;;;-144.79;100.00
19827;BME280;10074;52.018;4.726;2023-11-19T22:14:17;46477.91;;;-144.79;100.00
19827;BME280;10074;52.018;4.726;2023-11-19T22:19:17;46481.91;;;-144.79;100.00
19827;BME280;10074;52.018;4.726;2023-11-19T22:24:17;46479.91;;;-144.79;100.00
19827;BME280;10074;52.018;4.726;2023-11-19T22:29:18;46479.91;;;-144.79;100.00
19827;BME280;10074;52.018;4.726;2023-11-19T22:34:18;46475.91;;;-144.79;100.00
19827;BME280;10074;52.018;4.726;2023-11-19T22:39:18;46475.91;;;-144.79;100.00
19827;BME280;10074;52.018;4.726;2023-11-19T22:44:18;46473.91;;;-144.79;100.00
19827;BME280;10074;52.018;4.726;2023-11-19T22:49:19;46475.91;;;-144.79;100.00
19827;BME280;10074;52.018;4.726;2023-11-19T22:54:19;46475.91;;;-144.79;100.00
19827;BME280;10074;52.018;4.726;2023-11-19T22:59:21;46471.91;;;-144.79;100.00
19827;BME280;10074;52.018;4.726;2023-11-19T23:04:21;46471.91;;;-144.79;100.00
19827;BME280;10074;52.018;4.726;2023-11-19T23:09:23;46475.91;;;-144.79;100.00
19827;BME280;10074;52.018;4.726;2023-11-19T23:14:23;46477.91;;;-144.79;100.00
19827;BME280;10074;52.018;4.726;2023-11-19T23:19:23;46477.91;;;-144.79;100.00
19827;BME280;10074;52.018;4.726;2023-11-19T23:24:25;46475.91;;;-144.79;100.00
19827;BME280;10074;52.018;4.726;2023-11-19T23:29:26;46473.91;;;-144.79;100.00
19827;BME280;10074;52.018;4.726;2023-11-19T23:34:26;46475.91;;;-144.79;100.00
19827;BME280;10074;52.018;4.726;2023-11-19T23:39:27;46477.91;;;-144.79;100.00
19827;BME280;10074;52.018;4.726;2023-11-19T23:44:28;46475.91;;;-144.79;100.00
19827;BME280;10074;52.018;4.726;2023-11-19T23:49:29;46473.91;;;-144.79;100.00
19827;BME280;10074;52.018;4.726;2023-11-19T23:54:31;46477.91;;;-144.79;100.00
19827;BME280;10074;52.018;4.726;2023-11-19T23:59:31;46475.91;;;-144.79;100.00
